Time;durP1;ratioP1;P1;durP2;ratioP2;P2;SDS_P1;SDS_P2;PMS_P1;PMS_P2;Temp;Humidity;BMP_temperature;BMP_pressure;BME280_temperature;BME280_humidity;BME280_pressure;Samples;Min_cycle;Max_cycle;Signal;HPM_P1;HPM_P2
2023/12/29 00:02:00;;;;;;;13.07;2.90;;;;;;;;;;5013529;28;20042;-66
2023/12/29 00:04:26;;;;;;;10.63;2.63;;;;;;;;;;5013094;28;20045;-65
2023/12/29 00:06:52;;;;;;;10.00;2.30;;;;;;;;;;5013445;28;20041;-66
2023/12/29 00:09:21;;;;;;;12.38;2.20;;;;;;;;;;5013350;28;20177;-66
2023/12/29 00:11:48;;;;;;;9.45;2.58;;;;;;;;;;5013069;28;20381;-66
2023/12/29 00:14:14;;;;;;;10.73;2.30;;;;;;;;;;5013161;28;20038;-66
2023/12/29 00:16:40;;;;;;;14.63;2.22;;;;;;;;;;5013449;28;20473;-66
2023/12/29 00:19:06;;;;;;;14.98;2.58;;;;;;;;;;5005667;28;20042;-66
2023/12/29 00:21:32;;;;;;;14.63;2.58;;;;;;;;;;4993852;28;20046;-66
2023/12/29 00:23:58;;;;;;;12.98;2.25;;;;;;;;;;4993539;28;20042;-66
2023/12/29 00:26:24;;;;;;;8.30;1.88;;;;;;;;;;5005200;28;20451;-65
2023/12/29 00:28:51;;;;;;;8.38;2.35;;;;;;;;;;5012872;28;20042;-66
2023/12/29 00:31:17;;;;;;;12.02;2.58;;;;;;;;;;5012604;28;20058;-66
2023/12/29 00:33:43;;;;;;;10.15;2.28;;;;;;;;;;5012591;28;20069;-66
2023/12/29 00:36:14;;;;;;;7.47;1.92;;;;;;;;;;5011699;28;20049;-66
2023/12/29 00:38:41;;;;;;;13.52;2.05;;;;;;;;;;5012502;28;20034;-66
2023/12/29 00:41:07;;;;;;;11.90;2.25;;;;;;;;;;5012238;28;20046;-66
2023/12/29 00:43:33;;;;;;;14.07;2.60;;;;;;;;;;5011338;28;20483;-66
2023/12/29 00:45:59;;;;;;;12.30;2.55;;;;;;;;;;5012702;28;20524;-66
2023/12/29 00:48:25;;;;;;;12.30;3.53;;;;;;;;;;5012160;28;20038;-66
2023/12/29 00:50:51;;;;;;;12.18;2.75;;;;;;;;;;5012326;28;20077;-66
2023/12/29 00:53:17;;;;;;;15.77;2.58;;;;;;;;;;5012266;28;20042;-66
2023/12/29 00:55:43;;;;;;;12.70;2.30;;;;;;;;;;5011780;28;20052;-66
2023/12/29 00:58:09;;;;;;;12.32;2.80;;;;;;;;;;5012605;28;20046;-66
2023/12/29 01:00:35;;;;;;;11.05;2.67;;;;;;;;;;5012396;28;20713;-66
2023/12/29 01:03:01;;;;;;;10.13;2.67;;;;;;;;;;5010801;28;20511;-66
2023/12/29 01:05:27;;;;;;;17.98;3.22;;;;;;;;;;5012431;28;20042;-66
2023/12/29 01:07:53;;;;;;;14.65;2.80;;;;;;;;;;5012076;28;20046;-66
2023/12/29 01:10:19;;;;;;;16.25;3.13;;;;;;;;;;5011921;28;20041;-66
2023/12/29 01:12:45;;;;;;;18.60;3.10;;;;;;;;;;5012437;28;20046;-66
2023/12/29 01:15:12;;;;;;;13.20;2.72;;;;;;;;;;5012303;28;20495;-66
2023/12/29 01:17:38;;;;;;;15.95;3.25;;;;;;;;;;5011803;28;20562;-66
2023/12/29 01:20:04;;;;;;;16.85;3.00;;;;;;;;;;4997140;28;20042;-65
2023/12/29 01:22:30;;;;;;;13.75;3.33;;;;;;;;;;4992440;28;20053;-65
2023/12/29 01:24:56;;;;;;;24.80;3.42;;;;;;;;;;4992304;28;20044;-65
2023/12/29 01:27:22;;;;;;;10.95;3.65;;;;;;;;;;5011899;28;20048;-65
2023/12/29 01:29:48;;;;;;;18.83;3.42;;;;;;;;;;5011463;28;20054;-65
2023/12/29 01:32:14;;;;;;;17.60;3.58;;;;;;;;;;5011957;28;20053;-65
2023/12/29 01:34:40;;;;;;;18.00;3.28;;;;;;;;;;5011206;28;20041;-65
2023/12/29 01:37:06;;;;;;;23.00;3.50;;;;;;;;;;5011532;28;20057;-65
2023/12/29 01:39:34;;;;;;;17.88;3.30;;;;;;;;;;5011647;28;20489;-65
2023/12/29 01:42:01;;;;;;;18.88;3.83;;;;;;;;;;5011492;28;20121;-65
2023/12/29 01:44:27;;;;;;;20.30;3.40;;;;;;;;;;5011817;28;20044;-65
2023/12/29 01:46:57;;;;;;;14.38;3.15;;;;;;;;;;5011574;28;20042;-65
2023/12/29 01:49:23;;;;;;;15.52;3.15;;;;;;;;;;5011093;28;20045;-65
2023/12/29 01:51:57;;;;;;;14.23;3.00;;;;;;;;;;5011670;28;20064;-65
2023/12/29 01:54:25;;;;;;;19.52;3.60;;;;;;;;;;5011593;28;20038;-66
2023/12/29 01:56:55;;;;;;;11.38;2.53;;;;;;;;;;5011215;28;20076;-66
2023/12/29 01:59:21;;;;;;;12.77;2.50;;;;;;;;;;5011511;28;20096;-66
2023/12/29 02:01:47;;;;;;;10.35;2.97;;;;;;;;;;5011440;28;20092;-66
2023/12/29 02:04:13;;;;;;;11.82;2.90;;;;;;;;;;5010901;28;20101;-66
2023/12/29 02:06:40;;;;;;;17.42;3.55;;;;;;;;;;5010112;28;20121;-66
2023/12/29 02:09:07;;;;;;;13.73;3.30;;;;;;;;;;5010886;28;20046;-66
2023/12/29 02:11:33;;;;;;;22.48;3.50;;;;;;;;;;5010840;28;20046;-66
2023/12/29 02:14:00;;;;;;;17.08;3.40;;;;;;;;;;5011202;28;20042;-66
2023/12/29 02:16:29;;;;;;;18.52;3.38;;;;;;;;;;5010909;28;20038;-66
2023/12/29 02:18:57;;;;;;;15.75;2.80;;;;;;;;;;5005063;28;20084;-66
2023/12/29 02:21:26;;;;;;;13.82;3.63;;;;;;;;;;4991527;28;20406;-66
2023/12/29 02:23:52;;;;;;;17.67;3.38;;;;;;;;;;4991367;28;20046;-66
2023/12/29 02:26:21;;;;;;;23.38;3.63;;;;;;;;;;5002116;28;20045;-66
2023/12/29 02:28:52;;;;;;;17.50;4.35;;;;;;;;;;5010803;28;20069;-66
2023/12/29 02:31:20;;;;;;;12.77;2.97;;;;;;;;;;5010580;28;20510;-66
2023/12/29 02:33:47;;;;;;;14.65;3.60;;;;;;;;;;5009000;28;20061;-66
2023/12/29 02:36:16;;;;;;;15.32;3.30;;;;;;;;;;5010911;28;20037;-66
2023/12/29 02:38:42;;;;;;;15.90;2.95;;;;;;;;;;5010838;28;20038;-66
2023/12/29 02:41:08;;;;;;;13.43;3.33;;;;;;;;;;5010440;28;20041;-66
2023/12/29 02:43:35;;;;;;;16.73;3.95;;;;;;;;;;5010842;28;20097;-66
2023/12/29 02:46:01;;;;;;;16.35;3.38;;;;;;;;;;5010631;28;20473;-66
2023/12/29 02:48:27;;;;;;;10.95;2.78;;;;;;;;;;5010347;28;20468;-66
2023/12/29 02:50:53;;;;;;;15.30;2.83;;;;;;;;;;5010706;28;20131;-66
2023/12/29 02:53:19;;;;;;;11.77;2.95;;;;;;;;;;5010771;28;20383;-66
2023/12/29 02:55:45;;;;;;;13.45;3.45;;;;;;;;;;5010146;28;20048;-66
2023/12/29 02:58:11;;;;;;;17.45;3.95;;;;;;;;;;5010689;28;20049;-66
2023/12/29 03:00:37;;;;;;;17.67;3.58;;;;;;;;;;5010588;28;20506;-66
2023/12/29 03:03:03;;;;;;;20.42;3.58;;;;;;;;;;5010343;28;20473;-66
2023/12/29 03:05:29;;;;;;;17.80;3.42;;;;;;;;;;5010487;28;20472;-66
2023/12/29 03:07:55;;;;;;;17.55;3.30;;;;;;;;;;5010676;28;20042;-66
2023/12/29 03:10:21;;;;;;;17.67;3.78;;;;;;;;;;5010183;28;20042;-66
2023/12/29 03:12:47;;;;;;;18.33;2.95;;;;;;;;;;5010323;28;20077;-66
2023/12/29 03:15:13;;;;;;;15.48;3.38;;;;;;;;;;5010659;28;20120;-66
2023/12/29 03:17:39;;;;;;;13.93;3.28;;;;;;;;;;5010233;28;20421;-66
2023/12/29 03:20:07;;;;;;;21.48;3.75;;;;;;;;;;4996539;28;20109;-66
2023/12/29 03:22:33;;;;;;;15.55;3.42;;;;;;;;;;4994736;28;20046;-66
2023/12/29 03:24:59;;;;;;;17.35;4.43;;;;;;;;;;4994739;28;20034;-66
2023/12/29 03:27:25;;;;;;;13.75;3.33;;;;;;;;;;5014236;28;20042;-66
2023/12/29 03:29:51;;;;;;;19.77;3.55;;;;;;;;;;5013990;28;20119;-66
2023/12/29 03:32:18;;;;;;;22.45;4.15;;;;;;;;;;5013837;28;20042;-66
2023/12/29 03:34:44;;;;;;;13.90;2.95;;;;;;;;;;5013841;28;20120;-66
2023/12/29 03:37:11;;;;;;;22.67;3.58;;;;;;;;;;5014145;28;20037;-66
2023/12/29 03:39:37;;;;;;;13.70;3.30;;;;;;;;;;5013668;28;20435;-66
2023/12/29 03:42:03;;;;;;;17.85;3.50;;;;;;;;;;5013722;28;20129;-66
2023/12/29 03:44:29;;;;;;;16.05;3.20;;;;;;;;;;5013976;28;20093;-66
2023/12/29 03:46:55;;;;;;;20.60;3.90;;;;;;;;;;5013419;28;20133;-66
2023/12/29 03:49:21;;;;;;;13.02;3.20;;;;;;;;;;5013774;28;20388;-66
2023/12/29 03:51:47;;;;;;;12.63;2.90;;;;;;;;;;5013779;28;20075;-66
2023/12/29 03:54:13;;;;;;;14.73;2.80;;;;;;;;;;5013638;28;20421;-66
2023/12/29 03:56:39;;;;;;;11.73;2.60;;;;;;;;;;5013867;28;20652;-66
2023/12/29 03:59:05;;;;;;;17.33;3.30;;;;;;;;;;5013412;28;20050;-66
2023/12/29 04:01:33;;;;;;;18.15;3.13;;;;;;;;;;5013086;28;20121;-66
2023/12/29 04:03:59;;;;;;;15.07;3.15;;;;;;;;;;5013490;28;20053;-66
2023/12/29 04:06:26;;;;;;;18.77;3.35;;;;;;;;;;5013481;28;20045;-66
2023/12/29 04:08:52;;;;;;;13.48;3.53;;;;;;;;;;5012933;28;20381;-66
2023/12/29 04:11:18;;;;;;;18.50;3.63;;;;;;;;;;5013140;28;20042;-66
2023/12/29 04:13:44;;;;;;;21.65;3.60;;;;;;;;;;5013322;28;20041;-66
2023/12/29 04:16:10;;;;;;;13.43;3.03;;;;;;;;;;5013032;28;20065;-66
2023/12/29 04:18:36;;;;;;;19.58;3.90;;;;;;;;;;5010090;28;20050;-66
2023/12/29 04:21:02;;;;;;;11.05;3.17;;;;;;;;;;4993853;28;20048;-66
2023/12/29 04:23:28;;;;;;;21.73;3.83;;;;;;;;;;4993199;28;20444;-66
2023/12/29 04:25:54;;;;;;;14.70;3.33;;;;;;;;;;5001243;28;20401;-66
2023/12/29 04:28:20;;;;;;;15.00;3.47;;;;;;;;;;5012957;28;20034;-66
2023/12/29 04:30:46;;;;;;;22.52;3.50;;;;;;;;;;5012026;28;20061;-66
2023/12/29 04:33:12;;;;;;;22.13;3.60;;;;;;;;;;5011408;28;20497;-66
2023/12/29 04:35:38;;;;;;;21.42;3.45;;;;;;;;;;5012916;28;20049;-66
2023/12/29 04:38:06;;;;;;;20.95;3.72;;;;;;;;;;5012287;28;20052;-66
2023/12/29 04:40:32;;;;;;;28.27;4.32;;;;;;;;;;5012688;28;20042;-66
2023/12/29 04:42:58;;;;;;;22.58;4.03;;;;;;;;;;5012574;28;20116;-66
2023/12/29 04:45:24;;;;;;;24.25;4.03;;;;;;;;;;5012318;28;20041;-66
2023/12/29 04:47:50;;;;;;;19.35;3.90;;;;;;;;;;5012537;28;20042;-66
2023/12/29 04:50:16;;;;;;;19.15;3.40;;;;;;;;;;5012693;28;20073;-66
2023/12/29 04:52:42;;;;;;;23.10;3.55;;;;;;;;;;5012306;28;20084;-66
2023/12/29 04:55:08;;;;;;;31.75;4.53;;;;;;;;;;5012371;28;20046;-66
2023/12/29 04:57:35;;;;;;;20.75;3.95;;;;;;;;;;5012174;28;20037;-66
2023/12/29 05:00:01;;;;;;;23.20;3.55;;;;;;;;;;5012107;28;20038;-66
2023/12/29 05:02:27;;;;;;;25.17;3.83;;;;;;;;;;5012055;28;20042;-66
2023/12/29 05:04:53;;;;;;;23.77;3.72;;;;;;;;;;5012303;28;20034;-66
2023/12/29 05:07:19;;;;;;;18.75;3.40;;;;;;;;;;5011831;28;20052;-66
2023/12/29 05:09:45;;;;;;;20.88;3.78;;;;;;;;;;5012335;28;20049;-66
2023/12/29 05:12:11;;;;;;;26.90;3.90;;;;;;;;;;5012161;28;20038;-66
2023/12/29 05:14:37;;;;;;;17.42;3.08;;;;;;;;;;5012131;28;20496;-66
2023/12/29 05:17:03;;;;;;;24.35;3.72;;;;;;;;;;5012605;28;20049;-66
2023/12/29 05:19:29;;;;;;;21.60;3.72;;;;;;;;;;5002477;28;20501;-66
2023/12/29 05:21:55;;;;;;;26.67;3.53;;;;;;;;;;4993044;28;20046;-66
2023/12/29 05:24:21;;;;;;;22.20;3.55;;;;;;;;;;4993298;28;20100;-66
2023/12/29 05:26:47;;;;;;;26.15;3.90;;;;;;;;;;5007849;28;20092;-66
2023/12/29 05:29:14;;;;;;;24.02;3.75;;;;;;;;;;5011880;28;20041;-66
2023/12/29 05:31:40;;;;;;;24.75;3.92;;;;;;;;;;5012231;28;20050;-66
2023/12/29 05:34:06;;;;;;;19.48;3.17;;;;;;;;;;5012542;28;20409;-66
2023/12/29 05:36:35;;;;;;;23.15;3.78;;;;;;;;;;5012323;28;20116;-66
2023/12/29 05:39:01;;;;;;;19.30;2.83;;;;;;;;;;5010930;28;20496;-66
2023/12/29 05:41:27;;;;;;;23.42;3.17;;;;;;;;;;5012314;28;20737;-66
2023/12/29 05:43:53;;;;;;;21.80;3.13;;;;;;;;;;5011657;28;20465;-66
2023/12/29 05:46:19;;;;;;;22.02;3.17;;;;;;;;;;5012028;28;20657;-66
2023/12/29 05:48:47;;;;;;;20.42;3.25;;;;;;;;;;5012168;28;20536;-66
2023/12/29 05:51:13;;;;;;;16.00;3.08;;;;;;;;;;5012168;28;20034;-66
2023/12/29 05:53:40;;;;;;;21.63;3.70;;;;;;;;;;5011868;28;20042;-66
2023/12/29 05:56:06;;;;;;;25.75;3.72;;;;;;;;;;5012289;28;20042;-66
2023/12/29 05:58:32;;;;;;;22.48;3.35;;;;;;;;;;5011879;28;20046;-66
2023/12/29 06:01:00;;;;;;;21.42;3.55;;;;;;;;;;5011532;28;20038;-66
2023/12/29 06:03:26;;;;;;;25.08;3.95;;;;;;;;;;5011981;28;20389;-66
2023/12/29 06:05:52;;;;;;;19.70;3.53;;;;;;;;;;5011985;28;20775;-66
2023/12/29 06:08:19;;;;;;;19.02;3.47;;;;;;;;;;5011453;28;20050;-66
2023/12/29 06:10:45;;;;;;;28.70;4.05;;;;;;;;;;5011988;28;20481;-66
2023/12/29 06:13:11;;;;;;;23.52;4.05;;;;;;;;;;5011884;28;20638;-66
2023/12/29 06:15:38;;;;;;;23.05;5.32;;;;;;;;;;5011475;28;20680;-66
2023/12/29 06:18:05;;;;;;;27.17;4.40;;;;;;;;;;5011869;28;20041;-66
2023/12/29 06:20:31;;;;;;;29.10;4.50;;;;;;;;;;4993208;28;20386;-66
2023/12/29 06:22:57;;;;;;;31.30;4.85;;;;;;;;;;4991643;28;20532;-66
2023/12/29 06:25:23;;;;;;;28.08;4.05;;;;;;;;;;4995700;28;20688;-66
2023/12/29 06:27:49;;;;;;;27.42;4.00;;;;;;;;;;5011580;28;20061;-66
2023/12/29 06:30:15;;;;;;;33.20;4.97;;;;;;;;;;5010926;28;20188;-66
2023/12/29 06:32:41;;;;;;;29.63;4.22;;;;;;;;;;5011563;28;20050;-66
2023/12/29 06:35:09;;;;;;;26.70;4.45;;;;;;;;;;5011400;28;20125;-66
2023/12/29 06:37:37;;;;;;;30.40;5.25;;;;;;;;;;5010901;28;20051;-66
2023/12/29 06:40:03;;;;;;;28.58;4.10;;;;;;;;;;5011279;28;20054;-66
2023/12/29 06:42:30;;;;;;;36.47;4.45;;;;;;;;;;5011393;28;20053;-66
2023/12/29 06:44:56;;;;;;;27.80;5.07;;;;;;;;;;5010826;28;20050;-66
2023/12/29 06:47:22;;;;;;;28.73;4.38;;;;;;;;;;5011369;28;20526;-66
2023/12/29 06:49:48;;;;;;;31.73;5.05;;;;;;;;;;5011261;28;20072;-66
2023/12/29 06:52:14;;;;;;;32.20;4.18;;;;;;;;;;5010980;28;20373;-66
2023/12/29 06:54:41;;;;;;;27.33;3.95;;;;;;;;;;5011200;28;20448;-66
2023/12/29 06:57:07;;;;;;;34.83;4.45;;;;;;;;;;5011321;28;20484;-66
2023/12/29 06:59:33;;;;;;;36.42;5.68;;;;;;;;;;5010730;28;20426;-66
2023/12/29 07:01:59;;;;;;;32.92;4.78;;;;;;;;;;5011203;28;20462;-66
2023/12/29 07:04:25;;;;;;;31.88;4.82;;;;;;;;;;5011092;28;20408;-66
2023/12/29 07:06:51;;;;;;;31.90;4.85;;;;;;;;;;5010652;28;20456;-66
2023/12/29 07:09:17;;;;;;;26.05;4.35;;;;;;;;;;5010984;28;20045;-66
2023/12/29 07:11:48;;;;;;;28.45;4.65;;;;;;;;;;5011145;28;20088;-66
2023/12/29 07:14:15;;;;;;;26.70;4.40;;;;;;;;;;5010728;28;20153;-66
2023/12/29 07:16:41;;;;;;;30.35;4.95;;;;;;;;;;5011007;28;20045;-66
2023/12/29 07:19:07;;;;;;;32.35;5.20;;;;;;;;;;5003731;28;20088;-66
2023/12/29 07:21:34;;;;;;;34.90;4.47;;;;;;;;;;4991182;28;20518;-66
2023/12/29 07:24:00;;;;;;;36.75;5.35;;;;;;;;;;4991355;28;20101;-66
2023/12/29 07:26:26;;;;;;;42.92;4.88;;;;;;;;;;5003375;28;20550;-66
2023/12/29 07:28:54;;;;;;;31.80;4.97;;;;;;;;;;5010349;28;20559;-66
2023/12/29 07:31:21;;;;;;;33.83;4.65;;;;;;;;;;5010497;28;20064;-66
2023/12/29 07:33:47;;;;;;;35.72;5.60;;;;;;;;;;5010943;28;20081;-66
2023/12/29 07:36:13;;;;;;;29.33;4.80;;;;;;;;;;5010665;28;20374;-66
2023/12/29 07:38:39;;;;;;;26.95;4.30;;;;;;;;;;5010677;28;20598;-66
2023/12/29 07:41:05;;;;;;;38.42;4.68;;;;;;;;;;5010820;28;20038;-66
2023/12/29 07:43:32;;;;;;;32.10;5.40;;;;;;;;;;5010399;28;20404;-66
2023/12/29 07:45:58;;;;;;;39.20;5.00;;;;;;;;;;5010893;28;20034;-66
2023/12/29 07:48:24;;;;;;;32.05;5.22;;;;;;;;;;5010793;28;20048;-66
2023/12/29 07:50:50;;;;;;;34.45;5.05;;;;;;;;;;5010253;28;20056;-66
2023/12/29 07:53:16;;;;;;;38.45;4.15;;;;;;;;;;5010798;28;20045;-66
2023/12/29 07:55:43;;;;;;;27.75;4.15;;;;;;;;;;5010575;28;20116;-66
2023/12/29 07:58:10;;;;;;;30.33;3.97;;;;;;;;;;5009845;28;20042;-65
2023/12/29 08:00:37;;;;;;;24.15;3.80;;;;;;;;;;5007599;28;20408;-66
2023/12/29 08:03:03;;;;;;;30.73;4.32;;;;;;;;;;5003897;28;20125;-65
2023/12/29 08:05:29;;;;;;;31.05;4.90;;;;;;;;;;5010386;28;20645;-65
2023/12/29 08:07:55;;;;;;;28.35;4.47;;;;;;;;;;4995980;28;20050;-65
2023/12/29 08:10:21;;;;;;;33.08;4.05;;;;;;;;;;4994279;28;20563;-66
2023/12/29 08:12:47;;;;;;;19.20;3.90;;;;;;;;;;4994209;28;20073;-66
2023/12/29 08:15:13;;;;;;;22.15;3.30;;;;;;;;;;4992594;28;20474;-65
2023/12/29 08:17:40;;;;;;;26.17;4.82;;;;;;;;;;4994159;28;20077;-65
2023/12/29 08:20:06;;;;;;;31.13;4.22;;;;;;;;;;5006967;28;20128;-65
2023/12/29 08:22:32;;;;;;;22.77;3.97;;;;;;;;;;5008329;28;20093;-65
2023/12/29 08:24:59;;;;;;;32.20;3.78;;;;;;;;;;4993096;28;20050;-65
2023/12/29 08:27:25;;;;;;;35.00;4.18;;;;;;;;;;5002023;28;20136;-65
2023/12/29 08:29:52;;;;;;;27.08;5.18;;;;;;;;;;4993727;28;20057;-66
2023/12/29 08:32:18;;;;;;;31.70;5.03;;;;;;;;;;4993576;28;20125;-66
2023/12/29 08:34:44;;;;;;;28.80;4.97;;;;;;;;;;4993136;28;20170;-66
2023/12/29 08:37:10;;;;;;;23.33;4.10;;;;;;;;;;4993741;28;20122;-66
2023/12/29 08:39:36;;;;;;;35.53;4.05;;;;;;;;;;4992205;28;20042;-66
2023/12/29 08:42:03;;;;;;;27.20;4.35;;;;;;;;;;4993540;28;20096;-66
2023/12/29 08:44:29;;;;;;;25.20;4.32;;;;;;;;;;5009890;28;20046;-66
2023/12/29 08:46:55;;;;;;;29.65;5.70;;;;;;;;;;5006740;28;20481;-65
2023/12/29 08:49:21;;;;;;;26.10;4.78;;;;;;;;;;4992016;28;20058;-65
2023/12/29 08:51:47;;;;;;;28.75;4.57;;;;;;;;;;4993392;28;20039;-65
2023/12/29 08:54:13;;;;;;;21.33;3.70;;;;;;;;;;4992072;28;20054;-65
2023/12/29 08:56:39;;;;;;;22.52;3.83;;;;;;;;;;4991570;28;20048;-65
2023/12/29 08:59:06;;;;;;;23.20;3.95;;;;;;;;;;4993239;28;20042;-66
2023/12/29 09:01:33;;;;;;;25.08;3.83;;;;;;;;;;4993423;28;20489;-65
2023/12/29 09:04:00;;;;;;;22.17;3.78;;;;;;;;;;5006144;28;20125;-66
2023/12/29 09:06:26;;;;;;;27.38;4.55;;;;;;;;;;5011674;28;20433;-66
2023/12/29 09:08:52;;;;;;;21.83;4.32;;;;;;;;;;4991843;28;20572;-66
2023/12/29 09:11:18;;;;;;;26.38;4.05;;;;;;;;;;4990973;28;20466;-66
2023/12/29 09:13:44;;;;;;;30.80;4.47;;;;;;;;;;4993283;28;20046;-66
2023/12/29 09:16:10;;;;;;;22.33;4.40;;;;;;;;;;4991730;28;20047;-66
2023/12/29 09:18:36;;;;;;;33.35;4.75;;;;;;;;;;4993051;28;20038;-66
2023/12/29 09:21:02;;;;;;;22.25;4.75;;;;;;;;;;4993238;28;20057;-65
2023/12/29 09:23:28;;;;;;;21.65;4.70;;;;;;;;;;4992794;28;20045;-65
2023/12/29 09:25:54;;;;;;;18.25;3.85;;;;;;;;;;5000650;28;20038;-65
2023/12/29 09:28:21;;;;;;;21.20;4.32;;;;;;;;;;4993795;28;20537;-65
2023/12/29 09:30:47;;;;;;;22.40;4.10;;;;;;;;;;4992222;28;20062;-66
2023/12/29 09:33:13;;;;;;;13.93;3.80;;;;;;;;;;4992915;28;20086;-66
2023/12/29 09:35:39;;;;;;;20.60;3.90;;;;;;;;;;4992268;28;20096;-65
2023/12/29 09:38:06;;;;;;;22.08;4.28;;;;;;;;;;4993038;28;20506;-65
2023/12/29 09:40:32;;;;;;;14.48;3.25;;;;;;;;;;4992123;28;20086;-65
2023/12/29 09:42:59;;;;;;;23.92;4.32;;;;;;;;;;4992062;28;20050;-65
2023/12/29 09:45:26;;;;;;;20.90;4.03;;;;;;;;;;4992822;28;20696;-65
2023/12/29 09:47:55;;;;;;;25.60;4.38;;;;;;;;;;4991550;28;20061;-65
2023/12/29 09:50:22;;;;;;;20.50;4.63;;;;;;;;;;4990642;28;20119;-66
2023/12/29 09:52:51;;;;;;;20.67;3.58;;;;;;;;;;4992423;28;20459;-66
2023/12/29 09:55:18;;;;;;;18.27;3.50;;;;;;;;;;4991925;28;20054;-66
2023/12/29 09:57:44;;;;;;;17.48;3.70;;;;;;;;;;4992214;28;20092;-66
2023/12/29 10:00:11;;;;;;;19.45;4.03;;;;;;;;;;4990648;28;20414;-66
2023/12/29 10:02:38;;;;;;;20.20;3.28;;;;;;;;;;4992188;28;20042;-66
2023/12/29 10:05:04;;;;;;;26.38;4.32;;;;;;;;;;4990534;28;20129;-66
2023/12/29 10:07:32;;;;;;;20.17;4.32;;;;;;;;;;4990752;28;20397;-66
2023/12/29 10:09:59;;;;;;;21.13;3.47;;;;;;;;;;4992176;28;20039;-66
2023/12/29 10:12:25;;;;;;;17.88;3.95;;;;;;;;;;4991567;28;20038;-66
2023/12/29 10:15:05;;;;;;;17.10;3.30;;;;;;;;;;4974190;28;20042;-66
2023/12/29 10:17:32;;;;;;;25.83;4.07;;;;;;;;;;4990830;28;20043;-66
2023/12/29 10:20:07;;;;;;;20.25;3.60;;;;;;;;;;4996033;28;20117;-66
2023/12/29 10:22:53;;;;;;;15.15;3.25;;;;;;;;;;4991906;28;20430;-66
2023/12/29 10:25:19;;;;;;;21.98;3.03;;;;;;;;;;4976764;28;20050;-66
2023/12/29 10:27:46;;;;;;;19.10;4.57;;;;;;;;;;5010009;28;20041;-66
2023/12/29 10:30:12;;;;;;;25.95;3.72;;;;;;;;;;5010961;28;20057;-66
2023/12/29 10:32:39;;;;;;;16.05;3.88;;;;;;;;;;4997693;28;20769;-65
2023/12/29 10:35:12;;;;;;;15.68;3.63;;;;;;;;;;5005744;28;20475;-66
2023/12/29 10:37:38;;;;;;;17.70;3.60;;;;;;;;;;5005648;28;20500;-66
2023/12/29 10:40:05;;;;;;;17.90;3.22;;;;;;;;;;4998940;28;20083;-65
2023/12/29 10:42:32;;;;;;;15.55;3.25;;;;;;;;;;4991460;28;20378;-66
2023/12/29 10:45:08;;;;;;;14.85;2.92;;;;;;;;;;4992133;28;20046;-66
2023/12/29 10:47:35;;;;;;;10.18;2.20;;;;;;;;;;4990994;28;20444;-66
2023/12/29 10:50:03;;;;;;;9.82;2.05;;;;;;;;;;4997533;28;20056;-66
2023/12/29 10:52:30;;;;;;;19.05;2.30;;;;;;;;;;5001340;28;20049;-66
2023/12/29 10:55:09;;;;;;;20.20;3.25;;;;;;;;;;5000941;28;20057;-66
2023/12/29 10:57:36;;;;;;;18.75;2.70;;;;;;;;;;4991294;28;20777;-66
2023/12/29 11:00:03;;;;;;;8.52;2.00;;;;;;;;;;4991174;28;20145;-66
2023/12/29 11:02:30;;;;;;;19.95;2.70;;;;;;;;;;4991023;28;20039;-66
2023/12/29 11:05:03;;;;;;;16.70;2.70;;;;;;;;;;4991317;28;20048;-66
2023/12/29 11:07:33;;;;;;;17.23;2.70;;;;;;;;;;4991198;28;20042;-66
2023/12/29 11:10:07;;;;;;;19.98;2.50;;;;;;;;;;4991112;28;20054;-66
2023/12/29 11:12:34;;;;;;;17.90;2.70;;;;;;;;;;4997848;28;20038;-66
2023/12/29 11:15:02;;;;;;;13.55;2.40;;;;;;;;;;4994260;28;20038;-65
2023/12/29 11:17:29;;;;;;;15.90;2.88;;;;;;;;;;4993632;28;20034;-65
2023/12/29 11:19:56;;;;;;;15.18;2.45;;;;;;;;;;4995926;28;20046;-65
2023/12/29 11:22:23;;;;;;;17.50;3.60;;;;;;;;;;4992360;28;20042;-66
2023/12/29 11:24:49;;;;;;;15.70;2.63;;;;;;;;;;5010954;28;20049;-65
2023/12/29 11:27:16;;;;;;;14.77;2.50;;;;;;;;;;5009739;28;20129;-65
2023/12/29 11:29:42;;;;;;;17.15;2.55;;;;;;;;;;5010810;28;20077;-65
2023/12/29 11:32:20;;;;;;;18.10;2.97;;;;;;;;;;5008059;28;20046;-65
2023/12/29 11:34:55;;;;;;;16.95;2.60;;;;;;;;;;5001507;28;20415;-65
2023/12/29 11:37:21;;;;;;;20.20;3.28;;;;;;;;;;5001606;28;20512;-65
2023/12/29 11:39:59;;;;;;;23.67;3.65;;;;;;;;;;5008723;28;20042;-65
2023/12/29 11:42:32;;;;;;;21.48;3.45;;;;;;;;;;5013047;28;20038;-65
2023/12/29 11:44:58;;;;;;;14.95;2.60;;;;;;;;;;5012913;28;20045;-65
2023/12/29 11:47:39;;;;;;;13.15;2.47;;;;;;;;;;5012841;28;20041;-65
2023/12/29 11:50:06;;;;;;;21.38;2.95;;;;;;;;;;5013319;28;20068;-65
2023/12/29 11:52:34;;;;;;;15.23;2.35;;;;;;;;;;5013199;28;20061;-65
2023/12/29 11:55:17;;;;;;;21.60;2.35;;;;;;;;;;5012633;28;20038;-65
2023/12/29 11:57:44;;;;;;;13.93;2.53;;;;;;;;;;5013085;28;20042;-65
2023/12/29 12:00:10;;;;;;;13.00;2.15;;;;;;;;;;5011318;28;20057;-65
2023/12/29 12:02:36;;;;;;;16.15;2.53;;;;;;;;;;5011341;28;20061;-65
2023/12/29 12:05:02;;;;;;;17.48;2.67;;;;;;;;;;5012951;28;20041;-65
2023/12/29 12:07:28;;;;;;;14.30;2.40;;;;;;;;;;5012928;28;20420;-65
2023/12/29 12:10:13;;;;;;;19.60;2.40;;;;;;;;;;5012480;28;20073;-65
2023/12/29 12:12:40;;;;;;;18.42;2.70;;;;;;;;;;5011288;28;20052;-65
2023/12/29 12:15:26;;;;;;;11.15;2.13;;;;;;;;;;5012604;28;20566;-65
2023/12/29 12:17:52;;;;;;;23.33;2.90;;;;;;;;;;5012071;28;20042;-65
2023/12/29 12:20:19;;;;;;;14.23;2.60;;;;;;;;;;4994248;28;20056;-65
2023/12/29 12:22:45;;;;;;;13.88;2.95;;;;;;;;;;4992970;28;20042;-65
2023/12/29 12:25:15;;;;;;;12.95;2.42;;;;;;;;;;4993002;28;20174;-65
2023/12/29 12:27:41;;;;;;;21.00;3.15;;;;;;;;;;5012484;28;20042;-65
2023/12/29 12:30:09;;;;;;;18.15;3.00;;;;;;;;;;5010768;28;20289;-65
2023/12/29 12:32:36;;;;;;;15.77;2.78;;;;;;;;;;5011798;28;20117;-65
2023/12/29 12:35:03;;;;;;;16.25;2.97;;;;;;;;;;5012635;28;20122;-65
2023/12/29 12:37:29;;;;;;;14.65;2.38;;;;;;;;;;5012626;28;20042;-65
2023/12/29 12:39:56;;;;;;;17.67;2.47;;;;;;;;;;5012025;28;20388;-65
2023/12/29 12:42:23;;;;;;;16.33;2.22;;;;;;;;;;5012173;28;20038;-65
2023/12/29 12:44:55;;;;;;;10.73;2.58;;;;;;;;;;5012220;28;20041;-65
2023/12/29 12:47:37;;;;;;;15.15;2.60;;;;;;;;;;5011732;28;20053;-65
2023/12/29 12:50:05;;;;;;;10.93;2.22;;;;;;;;;;5010549;28;20038;-65
2023/12/29 12:52:36;;;;;;;18.08;2.88;;;;;;;;;;5011540;28;20100;-65
2023/12/29 12:55:02;;;;;;;15.57;2.05;;;;;;;;;;5011617;28;20444;-65
2023/12/29 12:57:29;;;;;;;16.42;2.58;;;;;;;;;;5011629;28;20045;-65
2023/12/29 12:59:56;;;;;;;16.45;2.50;;;;;;;;;;5010177;28;20073;-65
2023/12/29 13:02:22;;;;;;;12.40;2.33;;;;;;;;;;5011486;28;20440;-65
2023/12/29 13:04:48;;;;;;;13.63;3.33;;;;;;;;;;5011636;28;20049;-65
2023/12/29 13:07:17;;;;;;;15.15;2.25;;;;;;;;;;5011598;28;20038;-65
2023/12/29 13:09:44;;;;;;;12.23;2.10;;;;;;;;;;5011140;28;20034;-65
2023/12/29 13:12:11;;;;;;;21.02;2.45;;;;;;;;;;5011533;28;20092;-65
2023/12/29 13:14:37;;;;;;;13.77;2.38;;;;;;;;;;5011624;28;20488;-65
2023/12/29 13:17:07;;;;;;;14.27;2.45;;;;;;;;;;5011233;28;20091;-65
2023/12/29 13:19:34;;;;;;;16.88;2.63;;;;;;;;;;5011249;28;20042;-65
2023/12/29 13:22:00;;;;;;;16.55;2.30;;;;;;;;;;5011415;28;20456;-65
2023/12/29 13:24:26;;;;;;;14.13;2.70;;;;;;;;;;5011075;28;20096;-65
2023/12/29 13:27:02;;;;;;;20.63;2.63;;;;;;;;;;4994243;28;20073;-65
2023/12/29 13:29:29;;;;;;;25.35;3.15;;;;;;;;;;4991592;28;20058;-65
2023/12/29 13:31:56;;;;;;;14.50;2.80;;;;;;;;;;4990245;28;20042;-65
2023/12/29 13:34:30;;;;;;;18.30;2.50;;;;;;;;;;4991653;28;20495;-65
2023/12/29 13:37:01;;;;;;;17.92;2.83;;;;;;;;;;4990208;28;20042;-65
2023/12/29 13:39:31;;;;;;;24.00;3.40;;;;;;;;;;4991431;28;20281;-65
2023/12/29 13:41:59;;;;;;;18.92;3.28;;;;;;;;;;4990149;28;20046;-65
2023/12/29 13:44:27;;;;;;;19.60;2.75;;;;;;;;;;4991562;28;20042;-65
2023/12/29 13:46:53;;;;;;;19.27;2.65;;;;;;;;;;4990955;28;20074;-65
2023/12/29 13:49:19;;;;;;;18.75;3.03;;;;;;;;;;4991413;28;20040;-65
2023/12/29 13:51:45;;;;;;;21.63;2.95;;;;;;;;;;4991427;28;20549;-65
2023/12/29 13:54:11;;;;;;;19.65;2.70;;;;;;;;;;4990642;28;20104;-65
2023/12/29 13:56:38;;;;;;;16.92;2.95;;;;;;;;;;4991364;28;20042;-65
2023/12/29 13:59:07;;;;;;;14.20;2.60;;;;;;;;;;4991379;28;20050;-65
2023/12/29 14:01:39;;;;;;;17.45;3.42;;;;;;;;;;4990659;28;20117;-65
2023/12/29 14:04:08;;;;;;;17.67;2.72;;;;;;;;;;4990458;28;20048;-65
2023/12/29 14:06:43;;;;;;;19.08;2.80;;;;;;;;;;4991070;28;20069;-65
2023/12/29 14:09:15;;;;;;;13.88;2.85;;;;;;;;;;4990272;28;20048;-65
2023/12/29 14:11:44;;;;;;;15.27;2.60;;;;;;;;;;4991147;28;20073;-65
2023/12/29 14:14:10;;;;;;;14.60;2.38;;;;;;;;;;4989428;28;20057;-65
2023/12/29 14:16:39;;;;;;;18.08;3.10;;;;;;;;;;4990693;28;20056;-65
2023/12/29 14:19:05;;;;;;;19.92;2.75;;;;;;;;;;4997641;28;20042;-65
2023/12/29 14:21:32;;;;;;;22.60;3.22;;;;;;;;;;5009094;28;20073;-65
2023/12/29 14:24:09;;;;;;;17.13;2.88;;;;;;;;;;5009981;28;20092;-65
2023/12/29 14:26:36;;;;;;;19.83;3.28;;;;;;;;;;4996909;28;20038;-65
2023/12/29 14:29:02;;;;;;;19.10;3.00;;;;;;;;;;4990936;28;20046;-65
2023/12/29 14:31:28;;;;;;;23.02;3.38;;;;;;;;;;4990184;28;20580;-65